Time;durP1;ratioP1;P1;durP2;ratioP2;P2;SDS_P1;SDS_P2;PMS_P1;PMS_P2;Temp;Humidity;BMP_temperature;BMP_pressure;BME280_temperature;BME280_humidity;BME280_pressure;Samples;Min_cycle;Max_cycle;Signal;HPM_P1;HPM_P2
2022/04/26 03:37:05;;;;;;;7.03;4.10;;;;;;;;;;5109274;28;20123;-56
2022/04/26 03:39:35;;;;;;;9.05;3.95;;;;;;;;;;5109294;28;20028;-58
2022/04/26 03:42:04;;;;;;;;;;;;;;;;;;5109971;28;20103;-58
2022/04/26 03:44:30;;;;;;;7.38;3.72;;;;;;;;;;5109159;28;19907;-56
2022/04/26 03:46:57;;;;;;;8.88;3.85;;;;;;;;;;5096504;28;20028;-57
2022/04/26 03:49:23;;;;;;;7.95;3.88;;;;;;;;;;5108041;28;20024;-57
2022/04/26 03:51:52;;;;;;;9.30;3.42;;;;;;;;;;5109151;28;20028;-58
2022/04/26 03:54:18;;;;;;;9.48;4.03;;;;;;;;;;5108612;28;20059;-58
2022/04/26 03:56:44;;;;;;;7.22;3.67;;;;;;;;;;5108747;28;20513;-57
2022/04/26 03:59:10;;;;;;;8.75;3.60;;;;;;;;;;5108342;28;20027;-58
2022/04/26 04:01:36;;;;;;;7.50;3.78;;;;;;;;;;5108087;28;20126;-59
2022/04/26 04:04:02;;;;;;;7.32;3.30;;;;;;;;;;5103334;28;20634;-58
2022/04/26 04:06:28;;;;;;;6.38;3.50;;;;;;;;;;5104118;28;20088;-58
2022/04/26 04:08:54;;;;;;;10.50;3.97;;;;;;;;;;5108392;28;20524;-58
2022/04/26 04:11:20;;;;;;;9.63;3.65;;;;;;;;;;5108158;28;20028;-58
2022/04/26 04:13:46;;;;;;;9.38;4.20;;;;;;;;;;5108256;28;20023;-59
2022/04/26 04:16:12;;;;;;;10.07;4.20;;;;;;;;;;5107597;28;20035;-58
2022/04/26 04:21:22;;;;;;;20.80;3.97;;;;;;;;;;5098948;28;20042;-58
2022/04/26 04:23:48;;;;;;;9.90;4.47;;;;;;;;;;5107997;28;20447;-57
2022/04/26 04:26:14;;;;;;;9.52;3.72;;;;;;;;;;5107704;28;20639;-58
2022/04/26 04:28:40;;;;;;;13.43;4.40;;;;;;;;;;5108155;28;20565;-59
2022/04/26 04:31:08;;;;;;;10.23;3.15;;;;;;;;;;5108047;28;20541;-58
2022/04/26 04:33:34;;;;;;;8.38;2.90;;;;;;;;;;5096246;28;20032;-59
2022/04/26 04:36:00;;;;;;;8.90;3.60;;;;;;;;;;5107320;28;20042;-58
2022/04/26 04:38:29;;;;;;;6.00;3.13;;;;;;;;;;5108199;28;20134;-58
2022/04/26 04:40:55;;;;;;;9.45;3.35;;;;;;;;;;5108128;28;20032;-58
2022/04/26 04:43:21;;;;;;;10.38;3.75;;;;;;;;;;5102926;28;20170;-55
2022/04/26 04:45:48;;;;;;;10.23;3.97;;;;;;;;;;5103858;28;20055;-58
2022/04/26 04:48:14;;;;;;;8.68;3.40;;;;;;;;;;5107730;28;20019;-58
2022/04/26 04:50:41;;;;;;;13.80;4.00;;;;;;;;;;5107808;28;20795;-58
2022/04/26 04:53:07;;;;;;;16.20;4.60;;;;;;;;;;5107900;28;20131;-57
2022/04/26 04:55:33;;;;;;;18.40;4.68;;;;;;;;;;5108559;28;20622;-58
2022/04/26 04:58:00;;;;;;;17.40;4.47;;;;;;;;;;5106338;28;20454;-58
2022/04/26 05:00:26;;;;;;;25.92;4.35;;;;;;;;;;5107069;28;20050;-58
2022/04/26 05:02:52;;;;;;;21.90;5.63;;;;;;;;;;5107803;28;20031;-58
2022/04/26 05:05:18;;;;;;;16.95;5.38;;;;;;;;;;5108514;28;20477;-59
2022/04/26 05:07:44;;;;;;;12.70;5.93;;;;;;;;;;5108622;28;20028;-58
2022/04/26 05:10:10;;;;;;;22.73;5.95;;;;;;;;;;5107202;28;20038;-59
2022/04/26 05:12:36;;;;;;;26.90;6.30;;;;;;;;;;5104669;28;20047;-58
2022/04/26 05:15:03;;;;;;;20.65;5.97;;;;;;;;;;5107833;28;20039;-58
2022/04/26 05:17:29;;;;;;;27.38;6.78;;;;;;;;;;5108033;28;20757;-58
2022/04/26 05:19:56;;;;;;;35.85;6.53;;;;;;;;;;5107457;28;20482;-58
2022/04/26 05:22:22;;;;;;;16.20;6.50;;;;;;;;;;5107474;28;20051;-58
2022/04/26 05:24:54;;;;;;;16.85;6.45;;;;;;;;;;5108615;28;20028;-58
2022/04/26 05:27:31;;;;;;;17.55;7.00;;;;;;;;;;5106772;28;20478;-58
2022/04/26 05:29:58;;;;;;;13.05;5.47;;;;;;;;;;5096869;28;20048;-58
2022/04/26 05:32:27;;;;;;;11.65;5.65;;;;;;;;;;5107280;28;20023;-58
2022/04/26 05:34:57;;;;;;;12.00;4.97;;;;;;;;;;5107205;28;20035;-58
2022/04/26 05:37:23;;;;;;;8.98;4.93;;;;;;;;;;5104920;28;20065;-59
2022/04/26 05:39:49;;;;;;;17.85;5.97;;;;;;;;;;5111302;27;20035;-58
2022/04/26 05:42:15;;;;;;;11.77;5.20;;;;;;;;;;5108464;28;20609;-58
2022/04/26 05:44:42;;;;;;;13.15;5.15;;;;;;;;;;5111316;28;20031;-59
2022/04/26 05:47:09;;;;;;;12.88;5.68;;;;;;;;;;5111072;27;20055;-58
2022/04/26 05:49:35;;;;;;;13.48;5.95;;;;;;;;;;5110882;28;20106;-58
2022/04/26 05:52:02;;;;;;;12.80;5.47;;;;;;;;;;5111633;27;20106;-59
2022/04/26 05:54:29;;;;;;;11.80;5.22;;;;;;;;;;5109752;28;20150;-58
2022/04/26 05:56:55;;;;;;;9.73;4.93;;;;;;;;;;5110437;28;20032;-58
2022/04/26 05:59:21;;;;;;;12.82;5.93;;;;;;;;;;5109868;28;20362;-58
2022/04/26 06:01:48;;;;;;;21.60;6.43;;;;;;;;;;5112434;28;20545;-59
2022/04/26 06:04:14;;;;;;;14.07;5.18;;;;;;;;;;5112285;28;20024;-57
2022/04/26 06:06:40;;;;;;;13.02;4.38;;;;;;;;;;5111952;28;20035;-56
2022/04/26 06:09:07;;;;;;;16.25;5.05;;;;;;;;;;5107583;28;20019;-58
2022/04/26 06:11:33;;;;;;;21.70;4.65;;;;;;;;;;5106412;28;20111;-59
2022/04/26 06:14:01;;;;;;;17.77;5.20;;;;;;;;;;5107527;28;20027;-57
2022/04/26 06:16:28;;;;;;;21.85;5.00;;;;;;;;;;5110992;28;20031;-58
2022/04/26 06:18:55;;;;;;;26.20;6.10;;;;;;;;;;5109392;28;20860;-58
2022/04/26 06:21:21;;;;;;;24.90;5.72;;;;;;;;;;5111051;28;20098;-58
2022/04/26 06:23:47;;;;;;;17.55;4.75;;;;;;;;;;5110523;28;20039;-58
2022/04/26 06:26:14;;;;;;;16.83;4.45;;;;;;;;;;5109014;28;20027;-58
2022/04/26 06:28:40;;;;;;;16.23;5.07;;;;;;;;;;5103848;28;20032;-57
2022/04/26 06:31:06;;;;;;;19.70;5.38;;;;;;;;;;5110369;28;20161;-58
2022/04/26 06:33:34;;;;;;;11.45;4.72;;;;;;;;;;5109829;28;20075;-58
2022/04/26 06:36:00;;;;;;;27.15;4.95;;;;;;;;;;5111168;28;20035;-58
2022/04/26 06:38:26;;;;;;;17.45;4.00;;;;;;;;;;5111200;28;20769;-59
2022/04/26 06:40:53;;;;;;;30.17;5.22;;;;;;;;;;5108693;27;20028;-59
2022/04/26 06:43:19;;;;;;;15.88;4.20;;;;;;;;;;5109130;28;20446;-59
2022/04/26 06:45:48;;;;;;;23.50;4.68;;;;;;;;;;5109695;28;20474;-58
2022/04/26 06:48:17;;;;;;;27.25;4.40;;;;;;;;;;5107538;28;20187;-58
2022/04/26 06:50:44;;;;;;;24.05;5.07;;;;;;;;;;5108686;28;20054;-59
2022/04/26 06:53:10;;;;;;;22.20;4.88;;;;;;;;;;5109646;28;20020;-58
2022/04/26 06:55:37;;;;;;;18.40;4.18;;;;;;;;;;5108561;27;20412;-58
2022/04/26 06:58:03;;;;;;;23.02;4.68;;;;;;;;;;5107857;28;20042;-58
2022/04/26 07:00:29;;;;;;;18.58;4.28;;;;;;;;;;5109777;28;20133;-58
2022/04/26 07:02:56;;;;;;;20.70;5.00;;;;;;;;;;5109287;28;20086;-58
2022/04/26 07:05:22;;;;;;;13.43;4.05;;;;;;;;;;5109252;27;20033;-58
2022/04/26 07:07:50;;;;;;;23.70;4.63;;;;;;;;;;5104171;28;20043;-58
2022/04/26 07:10:16;;;;;;;10.15;3.65;;;;;;;;;;5101938;28;20027;-58
2022/04/26 07:12:42;;;;;;;11.50;4.15;;;;;;;;;;5110400;28;20032;-58
2022/04/26 07:15:09;;;;;;;17.83;3.25;;;;;;;;;;5109786;28;20032;-58
2022/04/26 07:17:39;;;;;;;13.00;3.53;;;;;;;;;;5108290;28;20031;-58
2022/04/26 07:20:05;;;;;;;13.85;4.00;;;;;;;;;;5092319;28;20062;-58
2022/04/26 07:22:32;;;;;;;23.20;4.55;;;;;;;;;;5110120;28;20538;-58
2022/04/26 07:24:58;;;;;;;13.90;4.63;;;;;;;;;;5095716;28;20023;-58
2022/04/26 07:27:24;;;;;;;13.90;4.53;;;;;;;;;;5098725;28;20068;-57
2022/04/26 07:29:50;;;;;;;12.75;3.45;;;;;;;;;;5110354;28;20056;-58
2022/04/26 07:32:19;;;;;;;16.75;3.20;;;;;;;;;;5109350;28;20674;-58
2022/04/26 07:34:47;;;;;;;16.38;3.50;;;;;;;;;;5108544;28;20130;-58
2022/04/26 07:37:14;;;;;;;12.50;3.33;;;;;;;;;;5103598;28;20043;-58
2022/04/26 07:39:41;;;;;;;18.30;3.78;;;;;;;;;;5088605;28;20035;-58
2022/04/26 07:42:07;;;;;;;11.00;3.50;;;;;;;;;;5107475;28;20020;-58
2022/04/26 07:44:35;;;;;;;12.15;3.55;;;;;;;;;;5108916;28;20085;-58
2022/04/26 07:47:02;;;;;;;14.80;4.07;;;;;;;;;;5104845;28;20028;-58
2022/04/26 07:49:28;;;;;;;13.18;3.85;;;;;;;;;;5090520;28;20032;-57
2022/04/26 07:51:54;;;;;;;16.27;3.53;;;;;;;;;;5101749;28;20043;-55
2022/04/26 07:54:20;;;;;;;12.40;3.78;;;;;;;;;;5104804;28;20028;-58
2022/04/26 07:56:46;;;;;;;13.85;3.83;;;;;;;;;;5109001;28;20027;-58
2022/04/26 07:59:14;;;;;;;12.68;4.18;;;;;;;;;;5109597;28;20438;-58
2022/04/26 08:01:41;;;;;;;11.55;3.42;;;;;;;;;;5102901;28;20028;-57
2022/04/26 08:04:07;;;;;;;15.82;3.80;;;;;;;;;;5099580;28;20047;-58
2022/04/26 08:06:33;;;;;;;13.90;3.80;;;;;;;;;;5094027;28;20431;-58
2022/04/26 08:08:59;;;;;;;11.18;3.33;;;;;;;;;;5103798;28;20074;-57
2022/04/26 08:11:28;;;;;;;11.40;3.33;;;;;;;;;;5106942;28;20466;-58
2022/04/26 08:13:54;;;;;;;9.98;2.90;;;;;;;;;;5107182;28;20692;-57
2022/04/26 08:16:20;;;;;;;12.35;3.22;;;;;;;;;;5106680;27;20102;-57
2022/04/26 08:18:46;;;;;;;9.18;2.88;;;;;;;;;;5108712;28;20512;-58
2022/04/26 08:21:16;;;;;;;12.65;3.80;;;;;;;;;;5108025;28;20083;-58
2022/04/26 08:29:14;;;;;;;12.48;3.60;;;;;;;;;;5108540;28;20417;-59
2022/04/26 08:31:41;;;;;;;12.30;3.55;;;;;;;;;;5107859;28;20045;-58
2022/04/26 08:34:07;;;;;;;10.73;3.15;;;;;;;;;;5108123;28;20115;-58
2022/04/26 08:36:34;;;;;;;11.80;2.72;;;;;;;;;;5108015;28;20016;-58
2022/04/26 08:39:00;;;;;;;12.88;2.92;;;;;;;;;;5101624;28;20035;-58
2022/04/26 08:41:26;;;;;;;7.93;2.65;;;;;;;;;;5101852;28;20031;-58
2022/04/26 08:43:52;;;;;;;14.15;3.20;;;;;;;;;;5108480;28;20027;-58
2022/04/26 08:46:18;;;;;;;7.10;2.47;;;;;;;;;;5108090;28;20024;-59
2022/04/26 08:51:30;;;;;;;10.43;2.60;;;;;;;;;;5109261;28;20038;-59
2022/04/26 08:53:58;;;;;;;10.02;2.95;;;;;;;;;;5108485;28;20139;-58
2022/04/26 08:56:24;;;;;;;12.40;3.15;;;;;;;;;;5108322;28;20063;-58
2022/04/26 08:58:52;;;;;;;11.48;3.10;;;;;;;;;;5108992;28;20051;-59
2022/04/26 09:01:19;;;;;;;8.13;2.97;;;;;;;;;;5108815;28;20582;-59
2022/04/26 09:04:01;;;;;;;8.93;2.95;;;;;;;;;;5108172;28;20046;-58
2022/04/26 09:06:33;;;;;;;10.50;2.90;;;;;;;;;;5108528;28;20023;-59
2022/04/26 09:09:15;;;;;;;9.77;2.90;;;;;;;;;;5108219;28;20134;-58
2022/04/26 09:11:42;;;;;;;8.95;2.95;;;;;;;;;;5108331;28;20085;-58
2022/04/26 09:14:09;;;;;;;9.55;3.20;;;;;;;;;;5111445;28;20019;-59
2022/04/26 09:16:35;;;;;;;12.15;2.92;;;;;;;;;;5112350;28;20020;-58
2022/04/26 09:19:05;;;;;;;8.32;2.95;;;;;;;;;;5112289;28;20020;-58
2022/04/26 09:21:32;;;;;;;7.72;3.13;;;;;;;;;;5112528;28;20131;-58
2022/04/26 09:24:01;;;;;;;7.55;2.83;;;;;;;;;;5112545;28;20102;-57
2022/04/26 09:26:33;;;;;;;7.32;3.20;;;;;;;;;;5101670;28;20016;-58
2022/04/26 09:28:59;;;;;;;9.50;2.70;;;;;;;;;;5110653;28;20106;-58
2022/04/26 09:31:26;;;;;;;8.32;3.10;;;;;;;;;;5112388;28;20577;-58
2022/04/26 09:33:57;;;;;;;11.35;2.50;;;;;;;;;;5112094;28;20043;-58
2022/04/26 09:36:28;;;;;;;8.48;3.33;;;;;;;;;;5107351;28;20039;-58
2022/04/26 09:38:58;;;;;;;11.68;3.50;;;;;;;;;;5112039;28;20027;-58
2022/04/26 09:41:25;;;;;;;7.20;2.70;;;;;;;;;;5111566;28;20040;-58
2022/04/26 09:44:04;;;;;;;12.57;3.05;;;;;;;;;;5106740;28;20043;-58
2022/04/26 09:46:43;;;;;;;7.68;4.18;;;;;;;;;;5110985;28;20110;-58
2022/04/26 09:49:09;;;;;;;6.47;3.03;;;;;;;;;;5112145;27;20030;-58
2022/04/26 09:51:38;;;;;;;6.22;3.53;;;;;;;;;;5111543;28;20034;-58
2022/04/26 09:54:05;;;;;;;5.75;3.00;;;;;;;;;;5105848;28;20089;-58
2022/04/26 09:56:32;;;;;;;8.15;3.65;;;;;;;;;;5109604;28;20127;-59
2022/04/26 09:58:59;;;;;;;8.52;3.58;;;;;;;;;;5097090;28;23195;-58
2022/04/26 10:01:27;;;;;;;7.80;3.75;;;;;;;;;;5096585;28;20031;-58
2022/04/26 10:03:56;;;;;;;10.32;3.17;;;;;;;;;;5097686;27;20024;-58
2022/04/26 10:06:22;;;;;;;15.13;3.53;;;;;;;;;;5094988;28;20053;-59
2022/04/26 10:08:48;;;;;;;8.43;3.10;;;;;;;;;;5095207;28;20028;-58
2022/04/26 10:11:15;;;;;;;9.02;3.38;;;;;;;;;;5102693;28;20486;-58
2022/04/26 10:13:43;;;;;;;12.73;3.38;;;;;;;;;;5097765;28;20047;-58
2022/04/26 10:16:10;;;;;;;12.13;4.15;;;;;;;;;;5101557;28;20040;-58
2022/04/26 10:18:43;;;;;;;11.52;3.50;;;;;;;;;;5091242;28;20613;-57
2022/04/26 10:21:10;;;;;;;9.32;3.80;;;;;;;;;;5093164;28;20106;-57
2022/04/26 10:23:51;;;;;;;6.18;3.78;;;;;;;;;;5092566;28;20032;-59
2022/04/26 10:28:57;;;;;;;9.98;3.60;;;;;;;;;;5092888;28;20115;-59
2022/04/26 10:31:37;;;;;;;9.35;3.70;;;;;;;;;;5093349;28;20051;-58
2022/04/26 10:34:17;;;;;;;9.75;4.07;;;;;;;;;;5095041;28;20032;-58
2022/04/26 10:36:44;;;;;;;8.05;3.92;;;;;;;;;;5097178;28;20482;-58
2022/04/26 10:39:12;;;;;;;8.93;4.13;;;;;;;;;;5094244;27;20831;-58
2022/04/26 10:41:41;;;;;;;7.22;3.50;;;;;;;;;;5097304;28;20039;-57
2022/04/26 10:44:16;;;;;;;7.43;3.50;;;;;;;;;;5097030;28;20028;-58
2022/04/26 10:46:42;;;;;;;7.10;3.60;;;;;;;;;;5095768;28;20026;-59
2022/04/26 10:49:29;;;;;;;7.93;3.30;;;;;;;;;;5095027;28;20382;-59
2022/04/26 10:51:56;;;;;;;8.82;3.28;;;;;;;;;;5096509;28;20044;-58
2022/04/26 10:54:40;;;;;;;8.45;3.42;;;;;;;;;;5096451;28;20826;-58
2022/04/26 10:57:06;;;;;;;13.57;3.88;;;;;;;;;;5094166;28;20169;-58
2022/04/26 10:59:32;;;;;;;6.55;3.65;;;;;;;;;;5094815;27;20501;-58
2022/04/26 11:01:59;;;;;;;6.95;3.20;;;;;;;;;;5094245;28;20585;-58
2022/04/26 11:04:25;;;;;;;7.20;2.97;;;;;;;;;;5095512;28;20114;-58
2022/04/26 11:06:51;;;;;;;9.98;3.10;;;;;;;;;;5095243;27;20565;-58
2022/04/26 11:09:19;;;;;;;10.00;3.13;;;;;;;;;;5096090;28;20036;-58
2022/04/26 11:11:48;;;;;;;7.00;2.72;;;;;;;;;;5094480;28;20545;-58
2022/04/26 11:14:15;;;;;;;6.10;2.90;;;;;;;;;;5094721;28;20092;-58
2022/04/26 11:16:57;;;;;;;7.35;3.05;;;;;;;;;;5093946;27;20090;-58
2022/04/26 11:19:31;;;;;;;4.88;2.47;;;;;;;;;;5092997;28;20499;-57
2022/04/26 11:21:57;;;;;;;5.28;2.92;;;;;;;;;;5093740;28;20027;-56
2022/04/26 11:30:05;;;;;;;6.22;3.20;;;;;;;;;;5093300;28;20086;-57
2022/04/26 11:32:32;;;;;;;4.97;2.70;;;;;;;;;;5092156;28;20048;-58
2022/04/26 11:34:58;;;;;;;7.30;2.45;;;;;;;;;;5093136;28;20039;-58
2022/04/26 11:37:24;;;;;;;4.63;2.45;;;;;;;;;;5092254;28;20043;-57
2022/04/26 11:39:50;;;;;;;5.32;2.90;;;;;;;;;;5093233;28;20030;-57
2022/04/26 11:42:16;;;;;;;4.93;2.63;;;;;;;;;;5090948;27;20549;-54
2022/04/26 11:45:01;;;;;;;5.65;2.80;;;;;;;;;;5092856;28;20106;-56
2022/04/26 11:47:41;;;;;;;4.97;2.22;;;;;;;;;;5096437;28;20053;-57
2022/04/26 11:50:11;;;;;;;11.48;3.75;;;;;;;;;;5092295;28;20020;-58
2022/04/26 11:52:37;;;;;;;16.05;4.43;;;;;;;;;;5091722;27;20110;-58
2022/04/26 11:55:04;;;;;;;10.45;3.97;;;;;;;;;;5096231;28;20042;-58
2022/04/26 11:57:31;;;;;;;12.38;4.43;;;;;;;;;;5094125;28;20441;-57
2022/04/26 11:59:58;;;;;;;8.38;4.28;;;;;;;;;;5092143;28;20036;-57
2022/04/26 12:02:24;;;;;;;8.13;4.40;;;;;;;;;;5095416;28;20473;-57
2022/04/26 12:04:50;;;;;;;15.43;3.88;;;;;;;;;;5094208;28;20020;-58
2022/04/26 12:07:17;;;;;;;7.68;3.53;;;;;;;;;;5091362;28;20114;-59
2022/04/26 12:09:43;;;;;;;9.00;4.20;;;;;;;;;;5095148;28;20030;-58
2022/04/26 12:12:14;;;;;;;15.95;4.45;;;;;;;;;;5094592;28;20027;-59
2022/04/26 12:14:41;;;;;;;10.27;4.88;;;;;;;;;;5096350;28;20088;-58
2022/04/26 12:17:29;;;;;;;10.20;4.35;;;;;;;;;;5095257;28;20048;-59
2022/04/26 12:19:56;;;;;;;9.18;3.65;;;;;;;;;;5091845;28;20027;-59
2022/04/26 12:22:28;;;;;;;9.20;3.63;;;;;;;;;;5093411;28;20754;-59
2022/04/26 12:24:54;;;;;;;7.82;3.50;;;;;;;;;;5094468;28;20035;-59
2022/04/26 12:27:22;;;;;;;11.00;4.28;;;;;;;;;;5096758;28;20036;-59
2022/04/26 12:29:53;;;;;;;7.93;3.78;;;;;;;;;;5095948;28;20036;-59
2022/04/26 12:32:19;;;;;;;;;;;;;;;;;;5091050;28;20023;-58
2022/04/26 12:34:58;;;;;;;7.90;4.28;;;;;;;;;;5091862;28;19920;-59
2022/04/26 12:37:26;;;;;;;7.10;3.08;;;;;;;;;;5091151;28;20028;-59
2022/04/26 12:39:53;;;;;;;7.63;3.55;;;;;;;;;;5093471;28;20031;-59
2022/04/26 12:42:30;;;;;;;10.88;4.57;;;;;;;;;;5094679;28;20034;-59
2022/04/26 12:44:58;;;;;;;9.38;3.70;;;;;;;;;;5090252;28;20040;-58
2022/04/26 12:50:28;;;;;;;9.68;3.63;;;;;;;;;;5093881;28;20039;-59
2022/04/26 12:52:55;;;;;;;8.65;3.42;;;;;;;;;;5095231;28;20063;-58
2022/04/26 12:55:24;;;;;;;8.20;3.20;;;;;;;;;;5090810;28;20096;-59
2022/04/26 12:57:52;;;;;;;10.10;3.35;;;;;;;;;;5096365;28;20023;-59
2022/04/26 13:00:21;;;;;;;6.72;3.08;;;;;;;;;;5092946;28;20028;-59
2022/04/26 13:02:51;;;;;;;6.67;2.90;;;;;;;;;;5094369;28;20477;-59
2022/04/26 13:05:17;;;;;;;10.82;3.55;;;;;;;;;;5095056;28;20035;-58
2022/04/26 13:07:48;;;;;;;13.98;3.55;;;;;;;;;;5090766;28;20036;-59
2022/04/26 13:10:14;;;;;;;8.98;2.90;;;;;;;;;;5094216;28;20043;-59
2022/04/26 13:12:41;;;;;;;8.50;3.22;;;;;;;;;;5090663;28;20039;-59
2022/04/26 13:15:08;;;;;;;7.80;3.28;;;;;;;;;;5091436;28;20040;-59
2022/04/26 13:17:35;;;;;;;8.52;2.88;;;;;;;;;;5092226;28;20587;-59
2022/04/26 13:20:01;;;;;;;7.38;3.33;;;;;;;;;;5095953;28;20488;-59
2022/04/26 13:22:29;;;;;;;8.65;2.80;;;;;;;;;;5092831;28;20021;-58
2022/04/26 13:24:55;;;;;;;7.95;3.38;;;;;;;;;;5094476;28;20036;-59
2022/04/26 13:27:21;;;;;;;9.95;3.45;;;;;;;;;;5090650;28;20492;-59
2022/04/26 13:29:49;;;;;;;14.38;3.67;;;;;;;;;;5091642;28;20114;-59
2022/04/26 13:32:16;;;;;;;13.07;3.70;;;;;;;;;;5088956;28;20455;-59
2022/04/26 13:34:42;;;;;;;13.88;3.92;;;;;;;;;;5085783;28;20745;-59
2022/04/26 13:37:09;;;;;;;14.95;3.63;;;;;;;;;;5089615;28;20038;-59
2022/04/26 13:39:35;;;;;;;13.45;2.97;;;;;;;;;;5089724;28;20054;-59
2022/04/26 13:42:02;;;;;;;11.63;2.80;;;;;;;;;;5093162;28;20500;-59
2022/04/26 13:44:28;;;;;;;8.23;3.10;;;;;;;;;;5089657;28;20070;-59
2022/04/26 13:46:54;;;;;;;14.07;4.00;;;;;;;;;;5093606;28;20135;-58
2022/04/26 13:49:21;;;;;;;11.90;3.00;;;;;;;;;;5093686;28;20035;-57
2022/04/26 13:51:47;;;;;;;11.35;3.28;;;;;;;;;;5091030;28;20042;-59
2022/04/26 13:54:13;;;;;;;6.70;2.78;;;;;;;;;;5096076;28;20099;-58
2022/04/26 13:56:39;;;;;;;7.78;2.80;;;;;;;;;;5093368;28;20107;-58
2022/04/26 13:59:05;;;;;;;11.50;3.25;;;;;;;;;;5093280;28;20545;-59
2022/04/26 14:01:31;;;;;;;11.35;3.10;;;;;;;;;;5097740;28;20034;-59
2022/04/26 14:03:57;;;;;;;10.65;2.92;;;;;;;;;;5093888;28;23474;-59
2022/04/26 14:06:23;;;;;;;6.90;2.78;;;;;;;;;;5097870;28;20050;-59
2022/04/26 14:08:49;;;;;;;6.95;2.80;;;;;;;;;;5094410;28;20561;-59
2022/04/26 14:11:19;;;;;;;6.82;2.80;;;;;;;;;;5097523;27;20019;-59
2022/04/26 14:22:16;;;;;;;7.63;3.15;;;;;;;;;;5075146;28;20028;-57
2022/04/26 14:24:42;;;;;;;9.50;3.70;;;;;;;;;;5091845;28;20047;-59
2022/04/26 14:27:08;;;;;;;8.45;2.90;;;;;;;;;;5094610;28;20099;-58
2022/04/26 14:29:34;;;;;;;8.07;3.22;;;;;;;;;;5096388;28;20135;-59
2022/04/26 14:32:01;;;;;;;6.72;2.90;;;;;;;;;;5091745;28;20022;-56
2022/04/26 14:34:27;;;;;;;7.18;3.40;;;;;;;;;;5096273;28;20038;-58
2022/04/26 14:36:53;;;;;;;7.47;3.25;;;;;;;;;;5094621;27;20102;-58
2022/04/26 14:39:19;;;;;;;9.52;3.22;;;;;;;;;;5097560;28;20031;-58
2022/04/26 14:41:45;;;;;;;7.03;2.70;;;;;;;;;;5094910;28;20844;-60
2022/04/26 14:44:12;;;;;;;10.40;3.38;;;;;;;;;;5094333;28;20122;-58
2022/04/26 14:46:38;;;;;;;6.38;3.35;;;;;;;;;;5096400;28;20031;-57
2022/04/26 14:49:04;;;;;;;6.10;3.10;;;;;;;;;;5096525;28;20032;-58
2022/04/26 14:51:31;;;;;;;13.95;3.72;;;;;;;;;;5092435;28;20455;-58
2022/04/26 14:53:56;;;;;;;9.82;3.40;;;;;;;;;;5092227;28;20015;-57
2022/04/26 14:56:22;;;;;;;10.65;2.88;;;;;;;;;;5095808;28;20458;-57
2022/04/26 14:58:52;;;;;;;6.55;3.03;;;;;;;;;;5091180;28;20019;-57
2022/04/26 15:01:18;;;;;;;6.90;3.15;;;;;;;;;;5093240;27;20028;-58
2022/04/26 15:03:44;;;;;;;7.18;3.72;;;;;;;;;;5093174;28;20470;-57
2022/04/26 15:06:14;;;;;;;6.47;2.85;;;;;;;;;;5098147;28;20028;-58
2022/04/26 15:11:24;;;;;;;7.15;2.92;;;;;;;;;;5093770;28;20027;-57
2022/04/26 15:16:38;;;;;;;6.63;2.90;;;;;;;;;;5091629;28;20050;-58
2022/04/26 15:19:04;;;;;;;8.88;3.50;;;;;;;;;;5094040;28;20035;-57
2022/04/26 15:21:30;;;;;;;6.57;3.22;;;;;;;;;;5096826;28;20445;-57
2022/04/26 15:23:56;;;;;;;12.93;3.60;;;;;;;;;;5092670;28;20131;-57
2022/04/26 15:26:24;;;;;;;11.05;3.20;;;;;;;;;;5097115;28;20028;-58
2022/04/26 15:28:51;;;;;;;11.60;2.95;;;;;;;;;;5092942;28;20030;-57
2022/04/26 15:31:18;;;;;;;8.90;3.20;;;;;;;;;;5095609;28;20164;-58
2022/04/26 15:33:47;;;;;;;10.82;3.10;;;;;;;;;;5093210;28;20390;-55
2022/04/26 15:36:17;;;;;;;8.07;3.83;;;;;;;;;;5096085;28;20039;-57
2022/04/26 15:38:43;;;;;;;5.97;2.97;;;;;;;;;;5093526;28;20062;-56
2022/04/26 15:41:10;;;;;;;6.22;3.10;;;;;;;;;;5093747;28;20038;-58
2022/04/26 15:43:37;;;;;;;8.93;3.08;;;;;;;;;;5093396;28;20346;-58
2022/04/26 15:46:03;;;;;;;6.18;3.03;;;;;;;;;;5095409;28;20115;-56
2022/04/26 15:48:29;;;;;;;7.32;3.50;;;;;;;;;;5093457;27;20020;-57
2022/04/26 15:50:56;;;;;;;9.18;3.30;;;;;;;;;;5097243;28;20031;-58
2022/04/26 15:53:22;;;;;;;8.38;3.38;;;;;;;;;;5095026;28;20122;-58
2022/04/26 15:55:48;;;;;;;8.52;3.22;;;;;;;;;;5092987;28;20128;-58
2022/04/26 15:58:14;;;;;;;7.03;3.15;;;;;;;;;;5095368;28;20039;-56
2022/04/26 16:00:40;;;;;;;8.70;3.28;;;;;;;;;;5097731;28;20522;-58
2022/04/26 16:03:06;;;;;;;9.60;3.25;;;;;;;;;;5109409;28;20016;-58
2022/04/26 16:05:33;;;;;;;8.38;3.45;;;;;;;;;;5109745;28;20038;-57
2022/04/26 16:07:59;;;;;;;12.57;2.90;;;;;;;;;;5109246;28;20469;-57
2022/04/26 16:21:25;;;;;;;9.10;2.35;;;;;;;;;;5109248;28;20460;-57
2022/04/26 16:23:53;;;;;;;6.95;2.60;;;;;;;;;;5108742;28;20099;-57
2022/04/26 16:26:22;;;;;;;7.20;2.58;;;;;;;;;;5109501;27;20390;-58
2022/04/26 16:28:49;;;;;;;5.38;2.28;;;;;;;;;;5108987;28;20103;-56
2022/04/26 16:31:19;;;;;;;7.30;2.47;;;;;;;;;;5108938;28;20043;-55
2022/04/26 16:33:45;;;;;;;8.13;2.92;;;;;;;;;;5109007;28;20031;-55
2022/04/26 16:36:11;;;;;;;13.10;3.05;;;;;;;;;;5109189;28;20051;-49
2022/04/26 16:38:38;;;;;;;11.52;2.80;;;;;;;;;;5108378;28;20032;-56
2022/04/26 16:41:05;;;;;;;11.13;3.45;;;;;;;;;;5109279;28;20106;-55
2022/04/26 16:43:33;;;;;;;13.35;4.03;;;;;;;;;;5108742;28;20370;-55
2022/04/26 16:46:01;;;;;;;10.93;3.28;;;;;;;;;;5108527;28;20039;-54
2022/04/26 16:48:27;;;;;;;15.95;3.35;;;;;;;;;;5108689;28;20034;-56
2022/04/26 16:50:53;;;;;;;9.57;2.78;;;;;;;;;;5108698;28;20034;-56
2022/04/26 16:53:19;;;;;;;9.45;3.00;;;;;;;;;;5108314;28;20023;-55
2022/04/26 16:55:46;;;;;;;14.27;3.38;;;;;;;;;;5108636;28;20043;-55
2022/04/26 16:58:13;;;;;;;9.38;3.72;;;;;;;;;;5108695;28;20112;-56
2022/04/26 17:00:41;;;;;;;12.48;2.88;;;;;;;;;;5107772;28;20373;-57
2022/04/26 17:03:07;;;;;;;8.38;2.63;;;;;;;;;;5109173;28;20102;-56
2022/04/26 17:05:33;;;;;;;13.63;2.92;;;;;;;;;;5108528;28;20026;-56
2022/04/26 17:07:59;;;;;;;10.35;2.85;;;;;;;;;;5108077;28;20039;-56
2022/04/26 17:10:26;;;;;;;8.52;2.30;;;;;;;;;;5108319;28;20019;-55
2022/04/26 17:12:52;;;;;;;9.27;2.38;;;;;;;;;;5108323;28;20035;-56
2022/04/26 17:15:19;;;;;;;14.88;2.80;;;;;;;;;;5108336;28;20592;-55
2022/04/26 17:17:45;;;;;;;16.63;2.58;;;;;;;;;;5108419;28;20122;-54
2022/04/26 17:20:13;;;;;;;16.20;2.33;;;;;;;;;;5107921;28;20028;-57
2022/04/26 17:22:39;;;;;;;11.98;2.63;;;;;;;;;;5108487;28;20065;-57
2022/04/26 17:25:15;;;;;;;10.55;2.38;;;;;;;;;;5108372;28;20430;-55
2022/04/26 17:27:45;;;;;;;16.35;2.80;;;;;;;;;;5108137;28;20082;-57
2022/04/26 17:30:12;;;;;;;9.25;2.90;;;;;;;;;;5107835;28;20039;-50
2022/04/26 17:32:39;;;;;;;11.43;2.42;;;;;;;;;;5107512;28;20775;-56
2022/04/26 17:35:06;;;;;;;11.55;3.20;;;;;;;;;;5111362;28;20050;-52
2022/04/26 17:37:32;;;;;;;12.48;2.75;;;;;;;;;;5111693;28;20118;-53
2022/04/26 17:39:58;;;;;;;12.38;2.50;;;;;;;;;;5111737;28;20150;-55
2022/04/26 17:42:24;;;;;;;7.03;2.20;;;;;;;;;;5112244;28;20022;-55
2022/04/26 17:44:51;;;;;;;11.50;2.00;;;;;;;;;;5112299;28;20031;-53
2022/04/26 17:47:18;;;;;;;10.00;2.08;;;;;;;;;;5112118;28;20118;-54
2022/04/26 17:49:45;;;;;;;7.47;2.75;;;;;;;;;;5111945;28;20114;-52
2022/04/26 17:52:11;;;;;;;12.65;2.40;;;;;;;;;;5111515;27;20573;-54
2022/04/26 17:57:22;;;;;;;7.13;2.08;;;;;;;;;;5111638;28;20046;-52
2022/04/26 17:59:48;;;;;;;8.73;2.17;;;;;;;;;;5111272;28;20039;-54
2022/04/26 18:02:14;;;;;;;10.95;2.03;;;;;;;;;;5110650;28;20122;-56
2022/04/26 18:04:43;;;;;;;6.15;1.85;;;;;;;;;;5111318;28;20027;-54
2022/04/26 18:07:09;;;;;;;9.07;2.30;;;;;;;;;;5111448;28;20030;-56
2022/04/26 18:09:36;;;;;;;9.88;2.15;;;;;;;;;;5111715;28;20085;-54
2022/04/26 18:12:03;;;;;;;6.32;1.70;;;;;;;;;;5112016;28;20081;-56
2022/04/26 18:14:30;;;;;;;11.00;2.67;;;;;;;;;;5110749;28;20031;-54
2022/04/26 18:16:56;;;;;;;9.95;2.60;;;;;;;;;;5101780;28;20020;-52
2022/04/26 18:19:22;;;;;;;8.00;1.70;;;;;;;;;;5111282;28;20027;-56
2022/04/26 18:21:48;;;;;;;10.05;2.97;;;;;;;;;;5111663;28;20035;-51
2022/04/26 18:24:14;;;;;;;9.88;2.10;;;;;;;;;;5111459;28;20454;-55
2022/04/26 18:26:42;;;;;;;5.32;2.20;;;;;;;;;;5111499;28;20027;-55
2022/04/26 18:29:09;;;;;;;5.93;1.85;;;;;;;;;;5111517;28;20023;-54
2022/04/26 18:31:37;;;;;;;7.90;1.92;;;;;;;;;;5110930;28;20052;-59
2022/04/26 18:34:04;;;;;;;7.88;2.08;;;;;;;;;;5111508;28;20038;-55
2022/04/26 18:36:30;;;;;;;6.15;1.80;;;;;;;;;;5102987;27;20039;-55
2022/04/26 18:38:57;;;;;;;8.10;1.75;;;;;;;;;;5108625;28;20035;-56
2022/04/26 18:41:24;;;;;;;8.57;1.98;;;;;;;;;;5111408;28;20030;-53
2022/04/26 18:43:52;;;;;;;8.20;2.03;;;;;;;;;;5111066;28;20102;-56
2022/04/26 18:46:21;;;;;;;4.22;1.70;;;;;;;;;;5109936;28;20058;-54
2022/04/26 18:48:48;;;;;;;6.75;1.67;;;;;;;;;;5111448;28;20506;-56
2022/04/26 18:51:15;;;;;;;10.90;1.83;;;;;;;;;;5102073;27;20043;-56
2022/04/26 18:53:41;;;;;;;11.18;2.10;;;;;;;;;;5101809;28;20077;-56
2022/04/26 18:56:08;;;;;;;7.45;1.98;;;;;;;;;;5111160;28;20040;-56
2022/04/26 18:58:34;;;;;;;6.60;2.10;;;;;;;;;;5110807;28;20015;-57
2022/04/26 19:01:01;;;;;;;8.60;2.05;;;;;;;;;;5101212;28;20412;-53
2022/04/26 19:03:28;;;;;;;11.93;2.70;;;;;;;;;;5095582;28;20028;-55
2022/04/26 19:05:54;;;;;;;10.10;2.08;;;;;;;;;;5110510;28;20039;-54